Mississippi River (Missouri), New Madrid (07024175)

StateMissouriLatestUnknown (1270000 cfs)
RiverMississippi RiverRatingObservedEstimated
Updated2020-02-25 16:00 (22 minutes ago)Flood - The river is flooding. Obstacles can be treacherous or deadly. The river should be avoided at this stage for casual trips and definitely for the inexperienced. Trips should be attempted only with protective gear and equipment.Flood(none)(none)
Discharge1270000 cfs (median: 1190000 cfs)High - The river is high and potentially dangerous, especially for the young and / or inexperienced. Normal stream obstacles are sometimes difficult to navigate. Extended distances can be attempted, but canoe travel may not be advisable.High(none)(none)
Height38.55 feetGood - Conditions are ideal for a canoe or kayak. Boats typically will drag on fewer than one-quarter of riffles, if at all, and portages are unnecessary or rare. Normal float lengths can be attempted without a problem.Good(none)(none)
TrendSteady (rising over 24 hours)Low - River is low but can still be floated. Some riffles are okay but most come with significant dragging and might need a portage. Float lengths should be reduced to accommodate low flow, dragging, and portages.Low(none)(none)
USGSExternal icon USGS Site (External icon Google Maps)Poor - River is too low to float comfortably. Most or all riffles will drag or must be portaged and some obstacles (such as slick shelf rock) cause undue problems. Avoid the river at this stage for casual paddling trips.Poor(none)(none)

Trending Data

Plot Image

Trips for Mississippi River (Missouri), New Madrid (07024175)

DateStartEndDistanceConditionDischargeHeightFishingDetails

A total of 0 rows are displayed.

Condition Descriptions

Fishing Conditions

Fish Species

Notes

Classic Trip List

The classic River Trips application is still available for use. It is updated with the new system using a data retrofit. It is no longer maintained. The original River Trips application is no longer updated (as of 1 Dec 2016) but can be checked for errors or for the condition of the data before it was converted to the new system.

Gauge Data Table

ObservationHeightDischargeMaximum
Discharge
Minimum
Discharge
Mean
Discharge
P05P10P20P25P50
(Median)
P75P80P90P95
2020-02-25 16:00 38.55 1270000 1480000 (2019) 380000 (2017) 1020000 380000 1190000 1480000
2020-02-25 15:00 38.59 1270000 1480000 (2019) 380000 (2017) 1020000 380000 1190000 1480000
2020-02-25 14:00 38.57 1270000 1480000 (2019) 380000 (2017) 1020000 380000 1190000 1480000
2020-02-25 13:00 38.59 1270000 1480000 (2019) 380000 (2017) 1020000 380000 1190000 1480000
2020-02-25 12:00 38.59 1270000 1480000 (2019) 380000 (2017) 1020000 380000 1190000 1480000
2020-02-25 11:00 38.62 1270000 1480000 (2019) 380000 (2017) 1020000 380000 1190000 1480000
2020-02-25 10:00 38.64 1280000 1480000 (2019) 380000 (2017) 1020000 380000 1190000 1480000
2020-02-25 09:00 38.62 1270000 1480000 (2019) 380000 (2017) 1020000 380000 1190000 1480000
2020-02-25 08:00 38.66 1280000 1480000 (2019) 380000 (2017) 1020000 380000 1190000 1480000
2020-02-25 07:00 38.66 1280000 1480000 (2019) 380000 (2017) 1020000 380000 1190000 1480000
2020-02-25 06:00 38.65 1280000 1480000 (2019) 380000 (2017) 1020000 380000 1190000 1480000
2020-02-25 05:00 38.66 1280000 1480000 (2019) 380000 (2017) 1020000 380000 1190000 1480000
2020-02-25 04:00 38.70 1280000 1480000 (2019) 380000 (2017) 1020000 380000 1190000 1480000
2020-02-25 03:00 38.04 1250000 1480000 (2019) 380000 (2017) 1020000 380000 1190000 1480000
2020-02-25 02:00 38.70 1280000 1480000 (2019) 380000 (2017) 1020000 380000 1190000 1480000
2020-02-25 01:00 38.67 1280000 1480000 (2019) 380000 (2017) 1020000 380000 1190000 1480000
2020-02-25 00:00 38.72 1280000 1480000 (2019) 380000 (2017) 1020000 380000 1190000 1480000
2020-02-24 23:00 38.65 1280000 1460000 (2019) 401000 (2017) 987000 401000 1100000 1460000
2020-02-24 22:00 38.74 1280000 1460000 (2019) 401000 (2017) 987000 401000 1100000 1460000
2020-02-24 21:00 38.72 1280000 1460000 (2019) 401000 (2017) 987000 401000 1100000 1460000
2020-02-24 20:00 38.80 1280000 1460000 (2019) 401000 (2017) 987000 401000 1100000 1460000
2020-02-24 19:00 38.86 1290000 1460000 (2019) 401000 (2017) 987000 401000 1100000 1460000
2020-02-24 18:00 38.90 1290000 1460000 (2019) 401000 (2017) 987000 401000 1100000 1460000
2020-02-24 17:00 38.85 1290000 1460000 (2019) 401000 (2017) 987000 401000 1100000 1460000
2020-02-24 16:00 38.85 1290000 1460000 (2019) 401000 (2017) 987000 401000 1100000 1460000
2020-02-24 15:00 37.82 1240000 1460000 (2019) 401000 (2017) 987000 401000 1100000 1460000
2020-02-24 14:00 38.83 1280000 1460000 (2019) 401000 (2017) 987000 401000 1100000 1460000
2020-02-24 13:00 38.87 1290000 1460000 (2019) 401000 (2017) 987000 401000 1100000 1460000
2020-02-24 12:00 38.85 1290000 1460000 (2019) 401000 (2017) 987000 401000 1100000 1460000
2020-02-24 11:00 38.52 1270000 1460000 (2019) 401000 (2017) 987000 401000 1100000 1460000
2020-02-24 10:00 38.88 1290000 1460000 (2019) 401000 (2017) 987000 401000 1100000 1460000
2020-02-24 09:00 38.94 1290000 1460000 (2019) 401000 (2017) 987000 401000 1100000 1460000
2020-02-24 08:00 38.91 1290000 1460000 (2019) 401000 (2017) 987000 401000 1100000 1460000
2020-02-24 07:00 38.87 1290000 1460000 (2019) 401000 (2017) 987000 401000 1100000 1460000
2020-02-24 06:00 38.87 1290000 1460000 (2019) 401000 (2017) 987000 401000 1100000 1460000
2020-02-24 05:00 38.98 1290000 1460000 (2019) 401000 (2017) 987000 401000 1100000 1460000
2020-02-24 04:00 38.94 1290000 1460000 (2019) 401000 (2017) 987000 401000 1100000 1460000
2020-02-24 03:00 38.93 1290000 1460000 (2019) 401000 (2017) 987000 401000 1100000 1460000
2020-02-24 02:00 38.91 1290000 1460000 (2019) 401000 (2017) 987000 401000 1100000 1460000
2020-02-24 01:00 38.88 1290000 1460000 (2019) 401000 (2017) 987000 401000 1100000 1460000
2020-02-24 00:00 38.88 1290000 1460000 (2019) 401000 (2017) 987000 401000 1100000 1460000
2020-02-23 23:00 38.89 1290000 1450000 (2019) 423000 (2017) 964000 423000 1020000 1450000
2020-02-23 22:00 38.94 1290000 1450000 (2019) 423000 (2017) 964000 423000 1020000 1450000
2020-02-23 21:00 38.83 1280000 1450000 (2019) 423000 (2017) 964000 423000 1020000 1450000
2020-02-23 20:00 38.90 1290000 1450000 (2019) 423000 (2017) 964000 423000 1020000 1450000
2020-02-23 19:00 38.60 1270000 1450000 (2019) 423000 (2017) 964000 423000 1020000 1450000
2020-02-23 18:00 38.91 1290000 1450000 (2019) 423000 (2017) 964000 423000 1020000 1450000
2020-02-23 17:00 38.92 1290000 1450000 (2019) 423000 (2017) 964000 423000 1020000 1450000
2020-02-23 16:00 38.94 1290000 1450000 (2019) 423000 (2017) 964000 423000 1020000 1450000
2020-02-23 15:00 38.97 1290000 1450000 (2019) 423000 (2017) 964000 423000 1020000 1450000
2020-02-23 14:00 38.96 1290000 1450000 (2019) 423000 (2017) 964000 423000 1020000 1450000
2020-02-23 13:00 38.93 1290000 1450000 (2019) 423000 (2017) 964000 423000 1020000 1450000
2020-02-23 12:00 38.97 1290000 1450000 (2019) 423000 (2017) 964000 423000 1020000 1450000
2020-02-23 11:00 38.59 1270000 1450000 (2019) 423000 (2017) 964000 423000 1020000 1450000
2020-02-23 10:00 38.84 1290000 1450000 (2019) 423000 (2017) 964000 423000 1020000 1450000
2020-02-23 09:00 38.96 1290000 1450000 (2019) 423000 (2017) 964000 423000 1020000 1450000
2020-02-23 08:00 38.98 1290000 1450000 (2019) 423000 (2017) 964000 423000 1020000 1450000
2020-02-23 07:00 38.59 1270000 1450000 (2019) 423000 (2017) 964000 423000 1020000 1450000
2020-02-23 06:00 38.96 1290000 1450000 (2019) 423000 (2017) 964000 423000 1020000 1450000
2020-02-23 05:00 38.94 1290000 1450000 (2019) 423000 (2017) 964000 423000 1020000 1450000
2020-02-23 04:00 38.98 1290000 1450000 (2019) 423000 (2017) 964000 423000 1020000 1450000
2020-02-23 03:00 38.94 1290000 1450000 (2019) 423000 (2017) 964000 423000 1020000 1450000
2020-02-23 02:00 38.94 1290000 1450000 (2019) 423000 (2017) 964000 423000 1020000 1450000
2020-02-23 01:00 38.91 1290000 1450000 (2019) 423000 (2017) 964000 423000 1020000 1450000
2020-02-23 00:00 38.66 1280000 1450000 (2019) 423000 (2017) 964000 423000 1020000 1450000
2020-02-22 23:00 38.94 1290000 1440000 (2019) 448000 (2017) 945000 448000 948000 1440000
2020-02-22 22:00 38.57 1270000 1440000 (2019) 448000 (2017) 945000 448000 948000 1440000
2020-02-22 21:00 39.00 1290000 1440000 (2019) 448000 (2017) 945000 448000 948000 1440000
2020-02-22 20:00 39.00 1290000 1440000 (2019) 448000 (2017) 945000 448000 948000 1440000
2020-02-22 19:00 38.99 1290000 1440000 (2019) 448000 (2017) 945000 448000 948000 1440000
2020-02-22 18:00 38.73 1280000 1440000 (2019) 448000 (2017) 945000 448000 948000 1440000
2020-02-22 17:00 38.95 1290000 1440000 (2019) 448000 (2017) 945000 448000 948000 1440000
2020-02-22 16:00 38.88 1290000 1440000 (2019) 448000 (2017) 945000 448000 948000 1440000
2020-02-22 15:00 38.98 1290000 1440000 (2019) 448000 (2017) 945000 448000 948000 1440000
2020-02-22 14:00 38.90 1290000 1440000 (2019) 448000 (2017) 945000 448000 948000 1440000
2020-02-22 13:00 38.89 1290000 1440000 (2019) 448000 (2017) 945000 448000 948000 1440000
2020-02-22 12:00 38.54 1270000 1440000 (2019) 448000 (2017) 945000 448000 948000 1440000
2020-02-22 11:00 38.88 1290000 1440000 (2019) 448000 (2017) 945000 448000 948000 1440000
2020-02-22 10:00 38.53 1270000 1440000 (2019) 448000 (2017) 945000 448000 948000 1440000
2020-02-22 09:00 38.88 1290000 1440000 (2019) 448000 (2017) 945000 448000 948000 1440000
2020-02-22 08:00 38.96 1290000 1440000 (2019) 448000 (2017) 945000 448000 948000 1440000
2020-02-22 07:00 38.93 1290000 1440000 (2019) 448000 (2017) 945000 448000 948000 1440000
2020-02-22 06:00 38.95 1290000 1440000 (2019) 448000 (2017) 945000 448000 948000 1440000
2020-02-22 05:00 38.90 1290000 1440000 (2019) 448000 (2017) 945000 448000 948000 1440000
2020-02-22 04:00 38.91 1290000 1440000 (2019) 448000 (2017) 945000 448000 948000 1440000
2020-02-22 03:00 38.88 1290000 1440000 (2019) 448000 (2017) 945000 448000 948000 1440000
2020-02-22 02:00 38.89 1290000 1440000 (2019) 448000 (2017) 945000 448000 948000 1440000
2020-02-22 01:00 38.92 1290000 1440000 (2019) 448000 (2017) 945000 448000 948000 1440000
2020-02-22 00:00 38.85 1290000 1440000 (2019) 448000 (2017) 945000 448000 948000 1440000
2020-02-21 23:00 38.86 1290000 1420000 (2019) 469000 (2017) 930000 469000 900000 1420000
2020-02-21 22:00 38.93 1290000 1420000 (2019) 469000 (2017) 930000 469000 900000 1420000
2020-02-21 21:00 38.92 1290000 1420000 (2019) 469000 (2017) 930000 469000 900000 1420000
2020-02-21 20:00 38.90 1290000 1420000 (2019) 469000 (2017) 930000 469000 900000 1420000
2020-02-21 19:00 38.88 1290000 1420000 (2019) 469000 (2017) 930000 469000 900000 1420000
2020-02-21 18:00 38.87 1290000 1420000 (2019) 469000 (2017) 930000 469000 900000 1420000
2020-02-21 17:00 38.88 1290000 1420000 (2019) 469000 (2017) 930000 469000 900000 1420000
2020-02-21 16:00 38.89 1290000 1420000 (2019) 469000 (2017) 930000 469000 900000 1420000
2020-02-21 15:00 38.82 1280000 1420000 (2019) 469000 (2017) 930000 469000 900000 1420000
2020-02-21 14:00 38.83 1280000 1420000 (2019) 469000 (2017) 930000 469000 900000 1420000
2020-02-21 13:00 38.91 1290000 1420000 (2019) 469000 (2017) 930000 469000 900000 1420000
2020-02-21 12:00 38.92 1290000 1420000 (2019) 469000 (2017) 930000 469000 900000 1420000
2020-02-21 11:00 38.83 1280000 1420000 (2019) 469000 (2017) 930000 469000 900000 1420000
2020-02-21 10:00 38.43 1270000 1420000 (2019) 469000 (2017) 930000 469000 900000 1420000
2020-02-21 09:00 38.81 1280000 1420000 (2019) 469000 (2017) 930000 469000 900000 1420000
2020-02-21 08:00 38.79 1280000 1420000 (2019) 469000 (2017) 930000 469000 900000 1420000
2020-02-21 07:00 38.80 1280000 1420000 (2019) 469000 (2017) 930000 469000 900000 1420000
2020-02-21 06:00 38.59 1270000 1420000 (2019) 469000 (2017) 930000 469000 900000 1420000
2020-02-21 05:00 38.79 1280000 1420000 (2019) 469000 (2017) 930000 469000 900000 1420000
2020-02-21 04:00 38.82 1280000 1420000 (2019) 469000 (2017) 930000 469000 900000 1420000
2020-02-21 03:00 38.76 1280000 1420000 (2019) 469000 (2017) 930000 469000 900000 1420000
2020-02-21 02:00 38.76 1280000 1420000 (2019) 469000 (2017) 930000 469000 900000 1420000
2020-02-21 01:00 38.78 1280000 1420000 (2019) 469000 (2017) 930000 469000 900000 1420000
2020-02-21 00:00 38.70 1280000 1420000 (2019) 469000 (2017) 930000 469000 900000 1420000
2020-02-20 23:00 38.74 1280000 1400000 (2019) 480000 (2017) 918000 480000 875000 1400000
2020-02-20 22:00 38.71 1280000 1400000 (2019) 480000 (2017) 918000 480000 875000 1400000
2020-02-20 21:00 38.73 1280000 1400000 (2019) 480000 (2017) 918000 480000 875000 1400000
2020-02-20 20:00 38.68 1280000 1400000 (2019) 480000 (2017) 918000 480000 875000 1400000
2020-02-20 19:00 38.66 1280000 1400000 (2019) 480000 (2017) 918000 480000 875000 1400000
2020-02-20 18:00 38.70 1280000 1400000 (2019) 480000 (2017) 918000 480000 875000 1400000
2020-02-20 17:00 38.64 1280000 1400000 (2019) 480000 (2017) 918000 480000 875000 1400000
2020-02-20 16:00 38.63 1280000 1400000 (2019) 480000 (2017) 918000 480000 875000 1400000
2020-02-20 15:00 38.65 1280000 1400000 (2019) 480000 (2017) 918000 480000 875000 1400000
2020-02-20 14:00 38.67 1280000 1400000 (2019) 480000 (2017) 918000 480000 875000 1400000
2020-02-20 13:00 38.64 1280000 1400000 (2019) 480000 (2017) 918000 480000 875000 1400000
2020-02-20 12:00 38.34 1260000 1400000 (2019) 480000 (2017) 918000 480000 875000 1400000
2020-02-20 11:00 38.62 1270000 1400000 (2019) 480000 (2017) 918000 480000 875000 1400000
2020-02-20 10:00 38.64 1280000 1400000 (2019) 480000 (2017) 918000 480000 875000 1400000
2020-02-20 09:00 38.63 1280000 1400000 (2019) 480000 (2017) 918000 480000 875000 1400000
2020-02-20 08:00 38.33 1260000 1400000 (2019) 480000 (2017) 918000 480000 875000 1400000
2020-02-20 07:00 38.59 1270000 1400000 (2019) 480000 (2017) 918000 480000 875000 1400000
2020-02-20 06:00 38.65 1280000 1400000 (2019) 480000 (2017) 918000 480000 875000 1400000
2020-02-20 05:00 38.27 1260000 1400000 (2019) 480000 (2017) 918000 480000 875000 1400000
2020-02-20 04:00 38.31 1260000 1400000 (2019) 480000 (2017) 918000 480000 875000 1400000
2020-02-20 03:00 38.60 1270000 1400000 (2019) 480000 (2017) 918000 480000 875000 1400000
2020-02-20 02:00 38.57 1270000 1400000 (2019) 480000 (2017) 918000 480000 875000 1400000
2020-02-20 01:00 38.61 1270000 1400000 (2019) 480000 (2017) 918000 480000 875000 1400000
2020-02-20 00:00 38.60 1270000 1400000 (2019) 480000 (2017) 918000 480000 875000 1400000
2020-02-19 23:00 38.57 1270000 1370000 (2019) 482000 (2017) 903000 482000 856000 1370000
2020-02-19 22:00 38.20 1250000 1370000 (2019) 482000 (2017) 903000 482000 856000 1370000
2020-02-19 21:00 38.59 1270000 1370000 (2019) 482000 (2017) 903000 482000 856000 1370000
2020-02-19 20:00 38.59 1270000 1370000 (2019) 482000 (2017) 903000 482000 856000 1370000
2020-02-19 19:00 38.24 1260000 1370000 (2019) 482000 (2017) 903000 482000 856000 1370000
2020-02-19 18:00 38.57 1270000 1370000 (2019) 482000 (2017) 903000 482000 856000 1370000
2020-02-19 17:00 38.53 1270000 1370000 (2019) 482000 (2017) 903000 482000 856000 1370000
2020-02-19 16:00 38.57 1270000 1370000 (2019) 482000 (2017) 903000 482000 856000 1370000
2020-02-19 15:00 38.54 1270000 1370000 (2019) 482000 (2017) 903000 482000 856000 1370000
2020-02-19 14:00 38.54 1270000 1370000 (2019) 482000 (2017) 903000 482000 856000 1370000
2020-02-19 13:00 38.54 1270000 1370000 (2019) 482000 (2017) 903000 482000 856000 1370000
2020-02-19 12:00 38.21 1260000 1370000 (2019) 482000 (2017) 903000 482000 856000 1370000
2020-02-19 11:00 38.54 1270000 1370000 (2019) 482000 (2017) 903000 482000 856000 1370000
2020-02-19 10:00 38.51 1270000 1370000 (2019) 482000 (2017) 903000 482000 856000 1370000
2020-02-19 09:00 38.49 1270000 1370000 (2019) 482000 (2017) 903000 482000 856000 1370000
2020-02-19 08:00 38.17 1250000 1370000 (2019) 482000 (2017) 903000 482000 856000 1370000
2020-02-19 07:00 38.48 1270000 1370000 (2019) 482000 (2017) 903000 482000 856000 1370000
2020-02-19 06:00 38.51 1270000 1370000 (2019) 482000 (2017) 903000 482000 856000 1370000
2020-02-19 05:00 38.50 1270000 1370000 (2019) 482000 (2017) 903000 482000 856000 1370000
2020-02-19 04:00 38.52 1270000 1370000 (2019) 482000 (2017) 903000 482000 856000 1370000
2020-02-19 03:00 38.48 1270000 1370000 (2019) 482000 (2017) 903000 482000 856000 1370000
2020-02-19 02:00 37.92 1240000 1370000 (2019) 482000 (2017) 903000 482000 856000 1370000
2020-02-19 01:00 38.28 1260000 1370000 (2019) 482000 (2017) 903000 482000 856000 1370000
2020-02-19 00:00 38.52 1270000 1370000 (2019) 482000 (2017) 903000 482000 856000 1370000
2020-02-18 23:00 38.53 1270000 1350000 (2019) 482000 (2017) 889000 482000 836000 1350000
2020-02-18 22:00 38.48 1270000 1350000 (2019) 482000 (2017) 889000 482000 836000 1350000
2020-02-18 21:00 38.51 1270000 1350000 (2019) 482000 (2017) 889000 482000 836000 1350000
2020-02-18 20:00 38.39 1260000 1350000 (2019) 482000 (2017) 889000 482000 836000 1350000
2020-02-18 19:00 38.45 1270000 1350000 (2019) 482000 (2017) 889000 482000 836000 1350000
2020-02-18 18:00 38.46 1270000 1350000 (2019) 482000 (2017) 889000 482000 836000 1350000
2020-02-18 17:00 38.41 1260000 1350000 (2019) 482000 (2017) 889000 482000 836000 1350000
2020-02-18 16:00 38.44 1270000 1350000 (2019) 482000 (2017) 889000 482000 836000 1350000
2020-02-18 15:00 38.47 1270000 1350000 (2019) 482000 (2017) 889000 482000 836000 1350000
2020-02-18 14:00 38.45 1270000 1350000 (2019) 482000 (2017) 889000 482000 836000 1350000
2020-02-18 13:00 38.41 1260000 1350000 (2019) 482000 (2017) 889000 482000 836000 1350000
2020-02-18 12:00 38.39 1260000 1350000 (2019) 482000 (2017) 889000 482000 836000 1350000
2020-02-18 11:00 38.35 1260000 1350000 (2019) 482000 (2017) 889000 482000 836000 1350000
2020-02-18 10:00 38.37 1260000 1350000 (2019) 482000 (2017) 889000 482000 836000 1350000
2020-02-18 09:00 38.35 1260000 1350000 (2019) 482000 (2017) 889000 482000 836000 1350000
2020-02-18 08:00 38.03 1250000 1350000 (2019) 482000 (2017) 889000 482000 836000 1350000
2020-02-18 07:00 38.36 1260000 1350000 (2019) 482000 (2017) 889000 482000 836000 1350000
2020-02-18 06:00 38.40 1260000 1350000 (2019) 482000 (2017) 889000 482000 836000 1350000
2020-02-18 05:00 38.35 1260000 1350000 (2019) 482000 (2017) 889000 482000 836000 1350000
2020-02-18 04:00 38.07 1250000 1350000 (2019) 482000 (2017) 889000 482000 836000 1350000
2020-02-18 03:00 38.35 1260000 1350000 (2019) 482000 (2017) 889000 482000 836000 1350000
2020-02-18 02:00 38.07 1250000 1350000 (2019) 482000 (2017) 889000 482000 836000 1350000
2020-02-18 01:00 38.08 1250000 1350000 (2019) 482000 (2017) 889000 482000 836000 1350000
2020-02-18 00:00 38.43 1270000 1350000 (2019) 482000 (2017) 889000 482000 836000 1350000

A total of 185 rows are displayed for years 2017 through 2019.